Time;durP1;ratioP1;P1;durP2;ratioP2;P2;SDS_P1;SDS_P2;PMS_P1;PMS_P2;Temp;Humidity;BMP_temperature;BMP_pressure;BME280_temperature;BME280_humidity;BME280_pressure;Samples;Min_cycle;Max_cycle;Signal;HPM_P1;HPM_P2
2022/12/23 00:01:14;;;;;;;115.67;70.70;;;;;;;;;;6340284;22;20344;-75
2022/12/23 00:03:40;;;;;;;118.50;69.33;;;;;;;;;;6340045;22;20381;-75
2022/12/23 00:06:11;;;;;;;122.50;68.00;;;;;;;;;;6340248;22;20440;-78
2022/12/23 00:08:37;;;;;;;115.57;67.03;;;;;;;;;;6339904;22;20002;-78
2022/12/23 00:11:04;;;;;;;110.23;67.27;;;;;;;;;;6339696;22;20443;-78
2022/12/23 00:16:15;;;;;;;108.57;66.07;;;;;;;;;;6339574;22;20064;-78
2022/12/23 00:18:42;;;;;;;120.60;70.13;;;;;;;;;;6339618;22;20478;-78
2022/12/23 00:21:09;;;;;;;113.10;67.80;;;;;;;;;;6339272;22;20007;-78
2022/12/23 00:23:37;;;;;;;118.37;68.13;;;;;;;;;;6339486;22;20069;-78
2022/12/23 00:26:03;;;;;;;101.97;61.80;;;;;;;;;;6339528;22;20006;-78
2022/12/23 00:28:29;;;;;;;110.93;64.00;;;;;;;;;;6339870;22;20010;-77
2022/12/23 00:31:03;;;;;;;102.20;62.33;;;;;;;;;;6339443;22;20076;-77
2022/12/23 00:33:34;;;;;;;102.37;60.23;;;;;;;;;;6339698;22;20055;-78
2022/12/23 00:36:00;;;;;;;99.23;57.20;;;;;;;;;;6339652;22;20003;-78
2022/12/23 00:43:57;;;;;;;102.90;60.50;;;;;;;;;;6339292;22;20435;-78
2022/12/23 00:46:23;;;;;;;90.90;55.50;;;;;;;;;;6339483;22;20074;-77
2022/12/23 00:51:34;;;;;;;101.37;58.87;;;;;;;;;;6339568;22;20026;-77
2022/12/23 00:54:01;;;;;;;101.17;59.10;;;;;;;;;;6339795;22;19998;-77
2022/12/23 00:56:27;;;;;;;102.13;58.10;;;;;;;;;;6340086;22;19999;-76
2022/12/23 01:14:45;;;;;;;88.10;50.80;;;;;;;;;;6183855;23;20039;-78
2022/12/23 01:29:38;;;;;;;86.23;51.33;;;;;;;;;;6338628;22;20149;-77
2022/12/23 01:32:05;;;;;;;89.77;53.37;;;;;;;;;;6339098;22;19999;-78
2022/12/23 01:34:31;;;;;;;90.13;51.93;;;;;;;;;;6339355;22;19994;-78
2022/12/23 01:36:57;;;;;;;85.50;50.73;;;;;;;;;;6339383;22;20324;-78
2022/12/23 01:39:23;;;;;;;82.73;48.93;;;;;;;;;;6338900;22;20329;-78
2022/12/23 01:44:49;;;;;;;85.20;53.07;;;;;;;;;;6338997;22;20052;-77
2022/12/23 01:47:24;;;;;;;86.33;55.53;;;;;;;;;;6338690;22;20333;-77
2022/12/23 01:49:52;;;;;;;90.90;56.00;;;;;;;;;;6310930;22;20371;-78
2022/12/23 01:52:19;;;;;;;97.10;56.37;;;;;;;;;;6338485;22;20085;-77
2022/12/23 01:54:45;;;;;;;91.87;56.27;;;;;;;;;;6339134;22;19994;-78
2022/12/23 01:57:11;;;;;;;92.33;55.07;;;;;;;;;;6338826;22;20005;-77
2022/12/23 02:05:08;;;;;;;85.77;53.60;;;;;;;;;;6337041;22;20068;-78
2022/12/23 02:10:20;;;;;;;85.67;55.40;;;;;;;;;;6338944;22;20014;-78
2022/12/23 02:12:56;;;;;;;81.83;52.43;;;;;;;;;;6338158;22;19995;-77
2022/12/23 02:18:30;;;;;;;80.57;54.20;;;;;;;;;;6338833;22;20025;-77
2022/12/23 02:21:15;;;;;;;85.90;55.30;;;;;;;;;;6338302;22;20413;-76
2022/12/23 02:24:00;;;;;;;85.70;56.43;;;;;;;;;;6310780;22;20086;-78
2022/12/23 02:26:26;;;;;;;85.47;58.10;;;;;;;;;;6338499;22;20436;-76
2022/12/23 02:28:52;;;;;;;92.10;57.20;;;;;;;;;;6337832;22;20332;-77
2022/12/23 02:31:27;;;;;;;83.50;54.10;;;;;;;;;;6338769;22;19994;-77
2022/12/23 02:33:53;;;;;;;91.23;60.77;;;;;;;;;;6338687;22;20345;-77
2022/12/23 02:36:32;;;;;;;92.40;58.57;;;;;;;;;;6338838;22;19999;-78
2022/12/23 02:39:05;;;;;;;96.60;58.87;;;;;;;;;;6339439;22;20003;-78
2022/12/23 02:41:37;;;;;;;89.57;57.90;;;;;;;;;;6339618;22;20017;-78
2022/12/23 02:44:10;;;;;;;98.03;61.42;;;;;;;;;;6339001;22;20005;-78
2022/12/23 02:46:41;;;;;;;96.00;60.10;;;;;;;;;;6339054;22;20022;-78
2022/12/23 02:49:10;;;;;;;88.63;57.40;;;;;;;;;;6311450;22;20074;-77
2022/12/23 03:21:03;;;;;;;90.47;57.50;;;;;;;;;;6339910;22;20040;-77
2022/12/23 03:23:32;;;;;;;92.50;59.88;;;;;;;;;;6340342;22;20328;-77
2022/12/23 03:26:08;;;;;;;89.30;57.63;;;;;;;;;;6340357;22;20333;-77
2022/12/23 03:28:43;;;;;;;86.00;58.43;;;;;;;;;;6340213;22;20006;-77
2022/12/23 03:31:12;;;;;;;92.93;58.73;;;;;;;;;;6340065;22;20321;-77
2022/12/23 03:33:44;;;;;;;86.93;57.30;;;;;;;;;;6312264;22;20329;-76
2022/12/23 03:36:14;;;;;;;90.20;57.80;;;;;;;;;;6340098;22;20309;-77
2022/12/23 03:38:42;;;;;;;89.83;56.80;;;;;;;;;;6340117;22;20400;-78
2022/12/23 03:41:13;;;;;;;91.90;58.03;;;;;;;;;;6340432;22;20306;-76
2022/12/23 03:43:41;;;;;;;88.43;57.23;;;;;;;;;;6339966;22;19995;-77
2022/12/23 03:46:11;;;;;;;82.60;52.90;;;;;;;;;;6339841;22;20010;-77
2022/12/23 03:48:43;;;;;;;82.87;54.13;;;;;;;;;;6340110;22;20360;-77
2022/12/23 03:51:11;;;;;;;84.70;52.80;;;;;;;;;;6339616;22;20441;-78
2022/12/23 03:53:46;;;;;;;82.33;52.27;;;;;;;;;;6340243;22;20342;-77
2022/12/23 03:56:14;;;;;;;81.47;51.33;;;;;;;;;;6339956;22;19999;-77
2022/12/23 03:59:00;;;;;;;85.33;53.53;;;;;;;;;;6339638;22;20014;-76
2022/12/23 04:01:38;;;;;;;83.23;49.83;;;;;;;;;;6339833;22;20448;-76
2022/12/23 04:04:10;;;;;;;76.93;47.57;;;;;;;;;;6340087;22;20416;-77
2022/12/23 04:06:42;;;;;;;71.43;44.38;;;;;;;;;;6339801;22;19999;-77
2022/12/23 04:09:08;;;;;;;73.10;45.43;;;;;;;;;;6339801;22;19995;-77
2022/12/23 04:11:35;;;;;;;74.93;45.47;;;;;;;;;;6339694;22;20401;-77
2022/12/23 04:14:01;;;;;;;68.13;44.67;;;;;;;;;;6339334;22;20010;-77
2022/12/23 04:16:28;;;;;;;73.40;46.77;;;;;;;;;;6339463;22;20438;-77
2022/12/23 04:18:54;;;;;;;65.53;43.23;;;;;;;;;;6339918;22;20013;-76
2022/12/23 04:21:20;;;;;;;69.27;44.27;;;;;;;;;;6339565;22;20010;-77
2022/12/23 04:23:46;;;;;;;68.47;43.73;;;;;;;;;;6339265;22;20417;-76
2022/12/23 04:26:12;;;;;;;66.57;42.73;;;;;;;;;;6339688;22;20044;-78
2022/12/23 04:28:38;;;;;;;71.27;46.30;;;;;;;;;;6339374;22;20003;-78
2022/12/23 04:31:04;;;;;;;69.63;44.83;;;;;;;;;;6340840;22;19991;-79
2022/12/23 04:33:31;;;;;;;64.93;41.67;;;;;;;;;;6340257;22;19999;-78
2022/12/23 04:35:59;;;;;;;63.47;40.73;;;;;;;;;;6340291;22;20383;-78
2022/12/23 04:38:25;;;;;;;67.67;43.20;;;;;;;;;;6340224;22;20064;-79
2022/12/23 04:40:57;;;;;;;68.37;43.10;;;;;;;;;;6339917;22;20034;-78
2022/12/23 04:43:23;;;;;;;65.63;41.75;;;;;;;;;;6339767;22;20044;-78
2022/12/23 05:10:28;;;;;;;50.58;33.13;;;;;;;;;;6124322;23;20021;-77
2022/12/23 05:12:55;;;;;;;48.10;31.53;;;;;;;;;;6179190;23;20367;-76
2022/12/23 05:15:21;;;;;;;51.07;33.97;;;;;;;;;;6266395;22;20014;-76
2022/12/23 05:17:47;;;;;;;56.50;35.80;;;;;;;;;;6281265;22;20387;-77
2022/12/23 05:20:13;;;;;;;53.47;34.90;;;;;;;;;;6307796;22;20333;-75
2022/12/23 05:22:39;;;;;;;49.53;34.17;;;;;;;;;;6308181;22;20334;-76
2022/12/23 05:25:06;;;;;;;53.67;35.10;;;;;;;;;;6307474;22;20395;-76
2022/12/23 05:27:32;;;;;;;49.83;33.63;;;;;;;;;;6281032;22;20052;-76
2022/12/23 05:29:58;;;;;;;53.37;34.17;;;;;;;;;;6307971;22;20330;-75
2022/12/23 05:32:24;;;;;;;52.17;33.10;;;;;;;;;;6307848;22;20027;-77
2022/12/23 05:34:50;;;;;;;47.97;31.13;;;;;;;;;;6307844;22;20384;-77
2022/12/23 05:37:16;;;;;;;46.33;30.03;;;;;;;;;;6307777;22;20406;-76
2022/12/23 05:39:42;;;;;;;48.10;32.40;;;;;;;;;;6307805;22;20018;-76
2022/12/23 05:42:08;;;;;;;41.60;28.43;;;;;;;;;;6307930;22;20429;-76
2022/12/23 05:44:35;;;;;;;40.07;25.10;;;;;;;;;;6307768;22;20075;-76
2022/12/23 05:47:01;;;;;;;34.67;24.17;;;;;;;;;;6307635;22;20451;-75
2022/12/23 05:49:27;;;;;;;35.07;21.97;;;;;;;;;;6307265;22;20418;-76
2022/12/23 05:51:53;;;;;;;31.03;19.03;;;;;;;;;;6280016;22;20014;-75
2022/12/23 05:54:19;;;;;;;29.13;18.63;;;;;;;;;;6307833;22;20417;-76
2022/12/23 05:56:45;;;;;;;29.00;18.70;;;;;;;;;;6308372;22;20070;-76
2022/12/23 05:59:11;;;;;;;26.93;17.50;;;;;;;;;;6307465;22;20353;-77
2022/12/23 06:01:37;;;;;;;23.73;16.07;;;;;;;;;;6307785;22;20007;-78
2022/12/23 06:04:03;;;;;;;26.30;16.37;;;;;;;;;;6307792;22;19995;-78
2022/12/23 06:06:30;;;;;;;28.00;17.40;;;;;;;;;;6307765;22;20337;-78
2022/12/23 06:08:56;;;;;;;29.77;17.90;;;;;;;;;;6307309;22;20030;-78
2022/12/23 06:11:22;;;;;;;25.10;16.57;;;;;;;;;;6307455;22;20003;-78
2022/12/23 06:13:48;;;;;;;25.77;18.23;;;;;;;;;;6323120;22;20082;-77
2022/12/23 06:16:14;;;;;;;30.63;18.93;;;;;;;;;;6338676;22;20006;-78
2022/12/23 06:18:40;;;;;;;34.10;18.87;;;;;;;;;;6339879;22;20025;-78
2022/12/23 06:21:06;;;;;;;27.53;18.80;;;;;;;;;;6339205;22;20007;-75
2022/12/23 06:23:32;;;;;;;29.70;20.10;;;;;;;;;;6339504;22;19999;-78
2022/12/23 06:25:59;;;;;;;26.57;18.27;;;;;;;;;;6339468;22;20109;-78
2022/12/23 06:28:25;;;;;;;28.57;19.17;;;;;;;;;;6339719;22;20006;-77
2022/12/23 06:54:55;;;;;;;37.20;26.03;;;;;;;;;;6338835;22;20010;-78
2022/12/23 07:03:39;;;;;;;50.87;33.50;;;;;;;;;;6338374;22;20341;-78
2022/12/23 07:06:06;;;;;;;56.83;35.10;;;;;;;;;;6338475;22;20318;-79
2022/12/23 07:08:32;;;;;;;57.50;36.93;;;;;;;;;;6338869;22;20543;-79
2022/12/23 07:11:02;;;;;;;67.67;42.20;;;;;;;;;;6338097;22;20329;-79
2022/12/23 07:13:28;;;;;;;63.50;41.37;;;;;;;;;;6338278;22;20306;-79
2022/12/23 07:15:55;;;;;;;72.03;45.67;;;;;;;;;;6338781;22;20365;-79
2022/12/23 07:18:22;;;;;;;68.13;45.93;;;;;;;;;;6338371;22;19999;-79
2022/12/23 07:20:48;;;;;;;64.97;42.83;;;;;;;;;;6335973;22;20416;-79
2022/12/23 07:23:14;;;;;;;66.50;45.27;;;;;;;;;;6337300;22;20074;-80
2022/12/23 07:25:40;;;;;;;70.53;46.20;;;;;;;;;;6337341;22;20014;-78
2022/12/23 07:28:06;;;;;;;76.57;46.50;;;;;;;;;;6337969;22;19999;-79
2022/12/23 07:30:32;;;;;;;73.83;46.90;;;;;;;;;;6337812;22;20444;-79
2022/12/23 07:32:58;;;;;;;73.80;46.90;;;;;;;;;;6337439;22;20433;-79
2022/12/23 07:35:25;;;;;;;67.70;44.30;;;;;;;;;;6337594;22;20065;-79
2022/12/23 07:37:54;;;;;;;66.47;43.50;;;;;;;;;;6336693;22;19999;-79
2022/12/23 07:40:21;;;;;;;69.17;43.53;;;;;;;;;;6337405;22;20493;-79
2022/12/23 07:42:48;;;;;;;68.67;43.57;;;;;;;;;;6335420;22;20022;-77
2022/12/23 07:45:15;;;;;;;70.17;46.10;;;;;;;;;;6336920;22;19999;-79
2022/12/23 07:47:41;;;;;;;88.60;54.33;;;;;;;;;;6338250;22;20464;-76
2022/12/23 07:50:08;;;;;;;82.20;54.70;;;;;;;;;;6339160;22;20417;-80
2022/12/23 07:52:34;;;;;;;80.17;50.63;;;;;;;;;;6339344;22;20003;-80
2022/12/23 07:55:00;;;;;;;72.67;49.37;;;;;;;;;;6339229;22;20428;-78
2022/12/23 07:57:28;;;;;;;82.10;49.10;;;;;;;;;;6339055;22;20022;-80
2022/12/23 07:59:54;;;;;;;70.90;46.20;;;;;;;;;;6338232;22;20049;-80
2022/12/23 08:02:23;;;;;;;74.87;47.33;;;;;;;;;;6338629;22;20048;-79
2022/12/23 08:04:49;;;;;;;71.87;43.80;;;;;;;;;;6339163;22;19995;-80
2022/12/23 08:07:15;;;;;;;62.43;39.47;;;;;;;;;;6339326;22;20003;-79
2022/12/23 08:09:42;;;;;;;58.13;39.17;;;;;;;;;;6338839;22;20336;-78
2022/12/23 08:12:08;;;;;;;58.80;39.87;;;;;;;;;;6339947;22;20026;-79
2022/12/23 08:14:34;;;;;;;60.73;39.57;;;;;;;;;;6339684;22;20065;-79
2022/12/23 08:17:00;;;;;;;65.00;41.77;;;;;;;;;;6312160;22;20021;-79
2022/12/23 08:19:27;;;;;;;67.40;42.63;;;;;;;;;;6311822;22;20086;-79
2022/12/23 08:25:08;;;;;;;64.37;39.50;;;;;;;;;;6243437;23;20089;-80
2022/12/23 08:37:05;;;;;;;60.53;36.90;;;;;;;;;;6009554;23;20016;-76
2022/12/23 08:39:52;;;;;;;57.23;37.03;;;;;;;;;;5984751;23;20035;-79
2022/12/23 08:42:18;;;;;;;58.33;36.87;;;;;;;;;;6033433;23;20022;-70
2022/12/23 08:47:56;;;;;;;55.40;36.70;;;;;;;;;;6083179;23;20013;-71
2022/12/23 08:50:23;;;;;;;58.90;37.90;;;;;;;;;;6194089;22;20007;-71
2022/12/23 08:52:49;;;;;;;65.17;40.33;;;;;;;;;;6338797;22;20376;-70
2022/12/23 08:55:16;;;;;;;53.80;37.00;;;;;;;;;;6338996;22;20407;-70
2022/12/23 08:57:42;;;;;;;59.90;38.17;;;;;;;;;;6338928;22;20404;-70
2022/12/23 09:00:08;;;;;;;62.80;39.00;;;;;;;;;;6338575;22;20084;-69
2022/12/23 09:02:34;;;;;;;63.53;40.33;;;;;;;;;;6337484;22;19995;-69
2022/12/23 09:05:00;;;;;;;60.73;37.97;;;;;;;;;;6337503;22;20325;-70
2022/12/23 09:07:26;;;;;;;57.57;37.80;;;;;;;;;;6338512;22;19995;-70
2022/12/23 09:09:53;;;;;;;56.77;37.63;;;;;;;;;;6338682;22;20372;-70
2022/12/23 09:12:19;;;;;;;56.00;36.93;;;;;;;;;;6338270;22;20482;-70
2022/12/23 09:14:46;;;;;;;61.40;37.30;;;;;;;;;;6338125;22;20018;-70
2022/12/23 09:17:13;;;;;;;66.23;41.83;;;;;;;;;;6338497;22;20074;-70
2022/12/23 09:19:39;;;;;;;66.70;40.67;;;;;;;;;;6338903;22;20427;-70
2022/12/23 09:22:05;;;;;;;63.60;39.20;;;;;;;;;;6338962;22;19999;-71
2022/12/23 09:24:31;;;;;;;63.47;39.97;;;;;;;;;;6338936;22;20494;-70
2022/12/23 09:26:57;;;;;;;60.77;40.17;;;;;;;;;;6338912;22;19999;-69
2022/12/23 09:29:23;;;;;;;52.97;33.80;;;;;;;;;;6338601;22;20348;-68
2022/12/23 09:31:49;;;;;;;45.13;29.47;;;;;;;;;;6337772;22;20017;-70
2022/12/23 09:34:15;;;;;;;43.37;28.03;;;;;;;;;;6339211;22;20073;-71
2022/12/23 09:36:41;;;;;;;41.07;26.40;;;;;;;;;;6338976;22;20407;-71
2022/12/23 09:39:09;;;;;;;37.13;25.30;;;;;;;;;;6338635;22;20003;-71
2022/12/23 09:41:54;;;;;;;37.50;23.03;;;;;;;;;;6338582;22;20375;-71
2022/12/23 09:44:29;;;;;;;36.50;22.43;;;;;;;;;;6338827;22;20064;-71
2022/12/23 09:46:57;;;;;;;32.60;21.93;;;;;;;;;;6311336;22;20377;-71
2022/12/23 09:49:24;;;;;;;39.80;24.13;;;;;;;;;;6339299;22;20003;-71
2022/12/23 09:51:53;;;;;;;43.73;27.33;;;;;;;;;;6338773;22;20424;-72
2022/12/23 09:54:23;;;;;;;39.47;25.13;;;;;;;;;;6339218;22;20006;-69
2022/12/23 09:56:55;;;;;;;42.97;25.10;;;;;;;;;;6339718;22;20006;-68
2022/12/23 09:59:34;;;;;;;40.07;22.57;;;;;;;;;;6311557;22;19999;-68
2022/12/23 10:02:11;;;;;;;40.23;25.10;;;;;;;;;;6339316;22;19999;-68
2022/12/23 10:04:40;;;;;;;46.83;28.23;;;;;;;;;;6339262;22;20021;-68
2022/12/23 10:35:38;;;;;;;124.47;50.20;;;8.90;99.90;;;;;;6307497;22;20045;-67
2022/12/23 10:38:30;;;;;;;125.80;48.40;;;8.80;99.90;;;;;;6307692;22;20086;-66
2022/12/23 10:41:25;;;;;;;112.10;44.87;;;8.80;99.90;;;;;;6307307;22;20334;-67
2022/12/23 10:44:18;;;;;;;137.93;47.20;;;8.80;99.90;;;;;;6224515;22;20402;-68
2022/12/23 10:46:47;;;;;;;149.80;51.05;;;8.90;99.90;;;;;;6307492;22;20325;-68
2022/12/23 10:49:46;;;;;;;143.83;47.57;;;8.80;99.90;;;;;;6280209;22;20322;-69
2022/12/23 10:52:19;;;;;;;134.87;49.07;;;8.80;99.90;;;;;;6307054;22;20480;-66
2022/12/23 10:54:46;;;;;;;143.90;49.30;;;8.80;99.90;;;;;;6307179;22;20364;-69
2022/12/23 10:57:16;;;;;;;132.60;48.60;;;8.90;99.90;;;;;;6307412;22;20006;-67
2022/12/23 10:59:42;;;;;;;153.83;52.47;;;8.90;99.90;;;;;;6307352;22;20035;-67
2022/12/23 11:02:11;;;;;;;149.50;50.83;;;8.80;99.90;;;;;;6306875;22;20426;-67
2022/12/23 11:04:45;;;;;;;132.20;50.43;;;8.90;99.90;;;;;;6307253;22;20023;-68
2022/12/23 11:07:14;;;;;;;128.10;48.03;;;8.90;99.90;;;;;;6307372;22;20035;-67
2022/12/23 11:09:49;;;;;;;127.27;47.67;;;8.90;99.90;;;;;;6280082;22;20333;-68
2022/12/23 11:12:15;;;;;;;132.07;51.83;;;;;;;;;;6307163;22;20368;-67
2022/12/23 11:14:52;;;;;;;112.87;47.63;;;;;;;;;;6306798;22;20033;-68
2022/12/23 11:17:22;;;;;;;133.30;49.77;;;;;;;;;;6306705;22;19995;-69
2022/12/23 11:20:05;;;;;;;115.80;49.00;;;;;;;;;;6337809;22;20035;-69
2022/12/23 11:22:31;;;;;;;123.60;50.53;;;;;;;;;;6338823;22;19999;-69
2022/12/23 11:25:16;;;;;;;123.77;50.17;;;;;;;;;;6340514;22;19995;-69
2022/12/23 11:27:43;;;;;;;119.10;50.00;;;;;;;;;;6339948;22;19994;-69
2022/12/23 11:30:16;;;;;;;122.60;50.57;;;;;;;;;;6340509;22;20011;-69
2022/12/23 11:32:43;;;;;;;105.40;45.70;;;;;;;;;;6340317;22;19999;-69
2022/12/23 11:35:23;;;;;;;113.03;47.47;;;;;;;;;;6340413;22;20432;-69
2022/12/23 11:37:50;;;;;;;99.10;46.37;;;;;;;;;;6340172;22;19999;-69
2022/12/23 11:40:24;;;;;;;107.40;49.10;;;8.90;99.90;;;;;;6340092;22;20041;-68
2022/12/23 11:42:58;;;;;;;102.37;47.07;;;;;;;;;;6340368;22;20003;-69
2022/12/23 11:45:28;;;;;;;107.33;49.13;;;;;;;;;;6340075;22;20011;-69
2022/12/23 11:47:55;;;;;;;96.00;44.60;;;;;;;;;;6340893;22;20037;-69
2022/12/23 11:50:28;;;;;;;99.13;46.80;;;9.00;99.90;;;;;;6340498;22;20018;-69
2022/12/23 11:53:02;;;;;;;100.43;48.90;;;9.00;99.90;;;;;;6340844;22;20063;-69
2022/12/23 11:56:13;;;;;;;94.67;46.70;;;9.00;99.90;;;;;;6340789;22;20003;-68
2022/12/23 11:59:09;;;;;;;102.83;49.07;;;9.00;99.90;;;;;;6320657;22;20010;-68
2022/12/23 12:17:38;;;;;;;98.13;48.78;;;;;;;;;;6240675;23;20047;-67
2022/12/23 12:23:36;;;;;;;100.67;50.77;;;;;;;;;;6214126;23;20122;-67
2022/12/23 12:26:06;;;;;;;109.37;52.17;;;;;;;;;;6213629;23;20331;-67
2022/12/23 12:28:34;;;;;;;94.90;51.33;;;;;;;;;;6209164;22;20048;-67
2022/12/23 12:31:05;;;;;;;103.90;53.63;;;;;;;;;;6308765;22;20014;-67
2022/12/23 12:33:42;;;;;;;111.13;54.33;;;;;;;;;;6308316;22;20291;-68
2022/12/23 12:36:26;;;;;;;104.40;52.73;;;;;;;;;;6307816;22;20390;-67
2022/12/23 12:38:54;;;;;;;97.50;50.20;;;;;;;;;;6305599;22;20306;-68
2022/12/23 12:41:28;;;;;;;104.60;54.10;;;;;;;;;;6304872;22;20060;-68
2022/12/23 12:44:13;;;;;;;114.97;55.73;;;;;;;;;;6277590;22;20333;-67
2022/12/23 12:46:42;;;;;;;103.80;52.73;;;;;;;;;;6307974;22;20003;-68
2022/12/23 12:49:21;;;;;;;106.17;54.70;;;;;;;;;;6307986;22;20306;-67
2022/12/23 12:51:57;;;;;;;106.37;54.23;;;;;;;;;;6308270;22;20430;-66
2022/12/23 12:54:30;;;;;;;103.27;53.27;;;;;;;;;;6307893;22;20009;-67
2022/12/23 12:56:56;;;;;;;100.03;52.67;;;;;;;;;;6308450;22;19999;-66
2022/12/23 12:59:27;;;;;;;113.30;59.53;;;;;;;;;;6308380;22;20054;-65
2022/12/23 13:02:21;;;;;;;116.03;59.03;;;;;;;;;;6308067;22;20011;-65
2022/12/23 13:05:00;;;;;;;116.77;61.00;;;;;;;;;;6308156;22;20003;-73
2022/12/23 13:07:41;;;;;;;111.27;58.93;;;;;;;;;;6307973;22;20005;-69
2022/12/23 13:10:13;;;;;;;119.87;63.07;;;;;;;;;;6307985;22;20006;-71
2022/12/23 13:12:45;;;;;;;112.10;61.88;;;;;;;;;;6308196;22;20321;-71
2022/12/23 13:15:30;;;;;;;121.93;61.93;;;;;;;;;;6280579;22;20486;-71
2022/12/23 13:18:11;;;;;;;109.13;56.27;;;;;;;;;;6312976;22;20293;-71
2022/12/23 13:20:37;;;;;;;111.43;59.57;;;;;;;;;;6338874;22;20014;-70
2022/12/23 13:23:09;;;;;;;114.30;59.37;;;;;;;;;;6338906;22;20323;-71
2022/12/23 13:25:41;;;;;;;119.68;62.00;;;;;;;;;;6339213;22;20003;-70
2022/12/23 13:28:07;;;;;;;130.83;70.63;;;;;;;;;;6339813;22;19999;-66
2022/12/23 13:30:38;;;;;;;124.70;68.37;;;;;;;;;;6339814;22;20010;-67
2022/12/23 13:33:21;;;;;;;121.30;68.57;;;9.00;99.90;;;;;;6340026;22;19998;-67
2022/12/23 13:35:50;;;;;;;;;;;9.20;99.90;;;;;;6340173;22;20378;-66
2022/12/23 13:49:11;;;;;;;115.03;60.17;;;9.20;99.90;;;;;;6318059;22;20007;-66
2022/12/23 13:55:42;;;;;;;116.73;60.20;;;9.20;99.90;;;;;;6182747;23;20013;-67
2022/12/23 14:01:34;;;;;;;116.70;60.73;;;9.20;99.90;;;;;;6182933;23;20361;-66
2022/12/23 14:04:56;;;;;;;115.20;61.23;;;9.10;99.90;;;;;;6182826;23;20005;-66
2022/12/23 14:07:23;;;;;;;111.20;58.53;;;9.20;99.90;;;;;;6326714;22;20006;-67
2022/12/23 14:09:57;;;;;;;108.67;56.90;;;9.20;99.90;;;;;;6338883;22;20362;-66
2022/12/23 14:12:29;;;;;;;108.60;58.07;;;9.10;99.90;;;;;;6338650;22;20436;-65
2022/12/23 14:15:22;;;;;;;123.38;60.45;;;9.20;99.90;;;;;;6338860;22;19998;-69
2022/12/23 14:18:06;;;;;;;116.50;57.92;;;9.20;99.90;;;;;;6337806;22;20009;-67
2022/12/23 14:20:41;;;;;;;104.80;56.43;;;9.20;99.90;;;;;;6338592;22;20007;-67
2022/12/23 14:23:35;;;;;;;114.97;56.83;;;9.20;99.90;;;;;;6338796;22;19999;-67
2022/12/23 14:26:29;;;;;;;100.23;54.73;;;9.20;99.90;;;;;;6338700;22;19999;-67
2022/12/23 14:29:20;;;;;;;100.47;54.27;;;9.20;99.90;;;;;;6338591;22;20333;-67
2022/12/23 14:31:54;;;;;;;95.27;50.63;;;9.20;99.90;;;;;;6338760;22;20372;-67
2022/12/23 14:34:21;;;;;;;103.33;53.73;;;9.20;99.90;;;;;;6338154;22;20472;-67
2022/12/23 14:37:15;;;;;;;95.53;52.20;;;9.20;99.90;;;;;;6337972;22;20085;-66
2022/12/23 14:39:42;;;;;;;167.53;104.43;;;9.20;99.90;;;;;;6337603;22;20151;-67
2022/12/23 14:42:10;;;;;;;155.53;98.67;;;9.20;99.90;;;;;;6337846;22;20009;-66
2022/12/23 14:44:36;;;;;;;152.17;90.63;;;9.20;99.90;;;;;;6338343;22;19994;-67
2022/12/23 14:47:04;;;;;;;129.63;80.90;;;9.20;99.90;;;;;;6338402;22;20017;-66
2022/12/23 14:49:42;;;;;;;127.57;78.20;;;9.20;99.90;;;;;;6338260;22;19994;-65
2022/12/23 14:52:33;;;;;;;111.57;66.73;;;9.20;99.90;;;;;;6338060;22;20094;-70
2022/12/23 14:55:26;;;;;;;99.70;57.57;;;9.20;99.90;;;;;;6335943;22;20437;-70
2022/12/23 14:58:01;;;;;;;86.70;52.58;;;9.20;99.90;;;;;;6339550;22;20052;-69
2022/12/23 15:00:30;;;;;;;96.37;52.43;;;9.20;99.90;;;;;;6339759;22;20011;-66
2022/12/23 15:03:08;;;;;;;86.50;50.67;;;9.20;99.90;;;;;;6340916;22;20060;-66
2022/12/23 15:09:33;;;;;;;100.20;53.83;;;9.20;99.90;;;;;;6185444;23;20016;-66
2022/12/23 15:25:47;;;;;;;110.80;58.63;;;9.20;99.90;;;;;;6220807;22;20014;-66
2022/12/23 15:28:22;;;;;;;112.93;61.07;;;9.10;99.90;;;;;;6308947;22;20337;-66
2022/12/23 15:30:53;;;;;;;101.20;56.43;;;9.20;99.90;;;;;;6308842;22;20334;-66
2022/12/23 15:33:22;;;;;;;106.93;58.00;;;9.20;99.90;;;;;;6308831;22;20306;-66
2022/12/23 15:35:48;;;;;;;110.43;59.07;;;9.20;99.90;;;;;;6308642;22;20003;-67
2022/12/23 15:38:16;;;;;;;111.97;60.90;;;9.20;99.90;;;;;;6309341;22;20396;-66
2022/12/23 15:40:42;;;;;;;98.80;55.07;;;9.20;99.90;;;;;;6309429;22;20337;-66
2022/12/23 15:43:24;;;;;;;104.93;57.43;;;9.20;99.90;;;;;;6309084;22;20377;-66
2022/12/23 15:45:51;;;;;;;103.57;58.30;;;9.20;99.90;;;;;;6308850;22;20437;-66
2022/12/23 15:48:28;;;;;;;105.77;58.70;;;9.20;99.90;;;;;;6308973;22;19999;-67
2022/12/23 15:51:02;;;;;;;100.63;54.33;;;9.20;99.90;;;;;;6309182;22;20456;-66
2022/12/23 15:53:33;;;;;;;96.83;55.87;;;9.20;99.90;;;;;;6309047;22;20429;-67
2022/12/23 15:56:05;;;;;;;98.50;56.10;;;9.20;99.90;;;;;;6308894;22;19995;-68
2022/12/23 15:58:33;;;;;;;99.83;56.87;;;9.20;99.90;;;;;;6308961;22;19995;-71
2022/12/23 16:00:59;;;;;;;102.10;58.23;;;9.20;99.90;;;;;;6308826;22;20007;-75
2022/12/23 16:03:41;;;;;;;103.53;57.40;;;9.10;99.90;;;;;;6308806;22;20021;-75
2022/12/23 16:06:15;;;;;;;102.53;57.87;;;9.10;99.90;;;;;;6308813;22;20018;-75
2022/12/23 16:08:42;;;;;;;103.03;59.77;;;9.10;99.90;;;;;;6308299;22;20018;-72
2022/12/23 16:11:16;;;;;;;101.90;57.27;;;9.10;99.90;;;;;;6308568;22;20006;-72
2022/12/23 16:14:00;;;;;;;105.37;56.27;;;9.10;99.90;;;;;;6308682;22;20400;-72
2022/12/23 16:16:37;;;;;;;114.57;64.27;;;9.10;99.90;;;;;;6309081;22;19999;-68
2022/12/23 16:19:04;;;;;;;117.57;68.03;;;9.10;99.90;;;;;;6309488;22;19995;-67
2022/12/23 16:21:34;;;;;;;106.70;62.60;;;9.10;99.90;;;;;;6328335;22;20022;-66
2022/12/23 16:24:05;;;;;;;102.17;64.33;;;9.10;99.90;;;;;;6340118;22;19999;-67
2022/12/23 16:37:09;;;;;;;102.73;61.83;;;9.10;99.90;;;;;;6244733;23;20086;-67
2022/12/23 16:43:46;;;;;;;102.77;62.00;;;9.10;99.90;;;;;;6244977;23;20046;-67
2022/12/23 16:46:28;;;;;;;113.50;63.60;;;9.10;99.90;;;;;;6206078;22;20101;-71
2022/12/23 16:48:59;;;;;;;105.83;62.53;;;9.10;99.90;;;;;;6215104;23;20383;-65
2022/12/23 16:51:26;;;;;;;105.53;62.38;;;9.10;99.90;;;;;;6215828;23;20028;-65
2022/12/23 16:53:55;;;;;;;105.67;60.33;;;9.10;99.90;;;;;;6189703;23;20005;-65
2022/12/23 16:56:25;;;;;;;103.37;61.80;;;9.10;99.90;;;;;;6215231;23;20015;-65
2022/12/23 16:58:51;;;;;;;111.87;63.77;;;9.10;99.90;;;;;;6215750;23;20072;-65
2022/12/23 17:01:22;;;;;;;106.37;61.53;;;9.10;99.90;;;;;;6215445;23;20040;-66
2022/12/23 17:03:48;;;;;;;109.77;63.10;;;9.00;99.90;;;;;;6215604;23;20095;-65
2022/12/23 17:06:15;;;;;;;114.87;64.83;;;9.00;99.90;;;;;;6216079;23;20318;-65
2022/12/23 17:08:42;;;;;;;104.70;62.60;;;9.10;99.90;;;;;;6214182;23;20446;-65
2022/12/23 17:11:17;;;;;;;110.27;61.37;;;9.00;99.90;;;;;;6215263;23;20433;-66
2022/12/23 17:13:44;;;;;;;101.93;57.83;;;9.00;99.90;;;;;;6214975;23;20031;-65
2022/12/23 17:16:14;;;;;;;93.80;57.60;;;9.10;99.90;;;;;;6215141;23;20031;-66
2022/12/23 17:18:40;;;;;;;87.37;53.67;;;9.10;99.90;;;;;;6215750;23;20004;-66
2022/12/23 17:21:23;;;;;;;92.97;57.23;;;9.00;99.90;;;;;;6214769;23;20112;-66
2022/12/23 17:23:50;;;;;;;92.32;55.47;;;9.00;99.90;;;;;;6215805;23;20434;-66
2022/12/23 17:26:17;;;;;;;91.30;56.30;;;9.00;99.90;;;;;;6188746;23;20323;-66
2022/12/23 17:28:42;;;;;;;96.43;58.00;;;9.00;99.90;;;;;;6214863;23;20012;-66
2022/12/23 17:31:08;;;;;;;91.83;56.33;;;9.00;99.90;;;;;;6215560;23;20327;-66
2022/12/23 17:33:34;;;;;;;90.77;56.53;;;9.00;99.90;;;;;;6216681;23;20004;-66
2022/12/23 17:36:00;;;;;;;101.87;58.73;;;9.00;99.90;;;;;;6216783;23;20001;-66
2022/12/23 17:38:28;;;;;;;90.10;56.57;;;9.00;99.90;;;;;;6216838;23;20015;-66
2022/12/23 17:40:57;;;;;;;100.13;61.97;;;9.00;99.90;;;;;;6214404;23;20008;-66
2022/12/23 17:44:23;;;;;;;119.83;70.03;;;9.00;99.90;;;;;;6213432;23;20001;-66
2022/12/23 17:48:03;;;;;;;99.23;62.13;;;9.00;99.90;;;;;;6121311;23;20366;-68
2022/12/23 18:07:49;;;;;;;91.63;55.33;;;9.00;99.90;;;;;;6032268;23;20014;-65
2022/12/23 18:10:18;;;;;;;84.33;53.43;;;9.00;99.90;;;;;;6007928;23;20011;-66
2022/12/23 18:12:46;;;;;;;93.20;55.77;;;9.00;99.90;;;;;;6008745;23;20384;-67
2022/12/23 18:15:24;;;;;;;87.37;54.10;;;9.00;99.90;;;;;;6125321;23;20001;-67
2022/12/23 18:17:51;;;;;;;92.90;55.97;;;9.00;99.90;;;;;;6215346;23;20386;-67
2022/12/23 18:20:19;;;;;;;94.33;57.27;;;9.00;99.90;;;;;;6214297;23;20308;-67
2022/12/23 18:22:47;;;;;;;96.53;58.30;;;9.00;99.90;;;;;;6212228;23;20008;-66
2022/12/23 18:25:18;;;;;;;89.47;55.23;;;9.00;99.90;;;;;;6212243;23;20312;-66
2022/12/23 18:27:44;;;;;;;100.27;58.03;;;9.00;99.90;;;;;;6215200;23;20753;-66